Ulman, Missouri
Current Conditions -  °F | °C
As of 8:55 AM on Friday 24 Oct 2014 (Local Time) from KAIZ Reporting Station
Clear Clear  
Wind Chill: 16°   Ceiling: Unl
Heat Index: 16°   Visibility: 7mi
Dew Point: 13°   Wind: 5mph
Humidity: 82%   Direction: 170°S
Pressure: 30.12"   Gusts: NA
Location:  38.15°N, 92.44°W
Report Text: KAIZ 241355Z AUTO 17004KT 7SM CLR 16/13 A3012 RMK AO1
Loading
Personal Weather Stations






























Interactive Weather Map
Tropical Storm Tracking
New forecast layout! Learn more

10-Day Weather Forecast

Advertisements
Track Severe Weather on mobile